Time;durP1;ratioP1;P1;durP2;ratioP2;P2;SDS_P1;SDS_P2;PMS_P1;PMS_P2;Temp;Humidity;BMP_temperature;BMP_pressure;BME280_temperature;BME280_humidity;BME280_pressure;Samples;Min_cycle;Max_cycle;Signal;HPM_P1;HPM_P2
2022/04/04 00:00:16;;;;;;;6.00;3.60;;;7.60;69.10;;;;;;4982797;28;20476;-73
2022/04/04 00:02:44;;;;;;;6.60;3.17;;;7.50;69.40;;;;;;4983767;28;20211;-75
2022/04/04 00:05:13;;;;;;;7.17;3.10;;;7.50;69.50;;;;;;4986061;28;20607;-74
2022/04/04 00:07:42;;;;;;;6.17;3.17;;;7.50;69.30;;;;;;4983238;28;21532;-73
2022/04/04 00:10:11;;;;;;;6.43;3.43;;;7.50;69.50;;;;;;4984404;28;20741;-74
2022/04/04 00:12:39;;;;;;;9.73;3.77;;;7.50;69.20;;;;;;4984227;28;20205;-75
2022/04/04 00:15:09;;;;;;;4.80;3.13;;;7.50;68.90;;;;;;4983220;28;20209;-74
2022/04/04 00:17:37;;;;;;;6.00;2.97;;;7.50;69.10;;;;;;4984787;28;20204;-74
2022/04/04 00:20:08;;;;;;;7.53;3.50;;;7.50;69.10;;;;;;4982799;28;20213;-75
2022/04/04 00:22:37;;;;;;;6.53;4.07;;;7.50;69.00;;;;;;4983735;28;20236;-74
2022/04/04 00:25:07;;;;;;;5.83;3.23;;;7.50;69.30;;;;;;4984171;28;20205;-75
2022/04/04 00:27:36;;;;;;;6.33;3.43;;;7.50;69.30;;;;;;4983121;28;20193;-75
2022/04/04 00:30:05;;;;;;;5.90;3.40;;;7.50;69.00;;;;;;4984386;28;20191;-74
2022/04/04 00:32:33;;;;;;;5.87;3.37;;;7.50;68.80;;;;;;4983125;28;21024;-74
2022/04/04 00:35:02;;;;;;;5.93;3.47;;;7.50;68.70;;;;;;4984011;28;20232;-74
2022/04/04 00:37:30;;;;;;;7.00;3.20;;;7.50;68.70;;;;;;4982526;28;20197;-76
2022/04/04 00:39:58;;;;;;;7.47;3.67;;;7.60;68.50;;;;;;4983850;28;20220;-74
2022/04/04 00:42:28;;;;;;;5.53;3.30;;;7.50;68.40;;;;;;4983581;28;20205;-73
2022/04/04 00:44:57;;;;;;;5.30;3.07;;;7.50;68.80;;;;;;4983851;28;20201;-74
2022/04/04 00:47:25;;;;;;;5.90;3.13;;;7.50;68.70;;;;;;4984461;28;20196;-75
2022/04/04 00:49:53;;;;;;;6.70;3.20;;;7.50;68.60;;;;;;4983729;28;20204;-75
2022/04/04 00:52:22;;;;;;;6.87;3.47;;;7.50;68.60;;;;;;4983026;28;21142;-75
2022/04/04 00:54:50;;;;;;;6.20;3.50;;;7.60;68.60;;;;;;4982991;28;20201;-75
2022/04/04 00:57:18;;;;;;;6.53;3.43;;;7.60;68.70;;;;;;4982507;28;21580;-75
2022/04/04 00:59:50;;;;;;;6.20;3.47;;;7.60;68.60;;;;;;4983624;28;20213;-75
2022/04/04 01:02:18;;;;;;;6.97;3.80;;;7.60;68.70;;;;;;4984393;28;20557;-75
2022/04/04 01:04:47;;;;;;;6.10;3.47;;;7.60;68.70;;;;;;4982059;28;20200;-75
2022/04/04 01:07:15;;;;;;;6.63;3.67;;;7.60;68.70;;;;;;4983065;28;20483;-75
2022/04/04 01:09:43;;;;;;;6.17;3.80;;;7.60;68.60;;;;;;4983194;28;20197;-75
2022/04/04 01:12:14;;;;;;;7.03;3.37;;;7.60;68.70;;;;;;4983813;28;20231;-75
2022/04/04 01:14:46;;;;;;;6.80;3.73;;;7.50;68.70;;;;;;4984752;28;20215;-75
2022/04/04 01:17:17;;;;;;;9.20;3.73;;;7.50;68.80;;;;;;4983033;28;20569;-75
2022/04/04 01:19:45;;;;;;;5.63;3.30;;;7.50;68.70;;;;;;4982443;28;20658;-75
2022/04/04 01:22:15;;;;;;;7.93;3.57;;;7.50;68.60;;;;;;4983612;28;20237;-75
2022/04/04 01:24:45;;;;;;;7.13;3.80;;;7.50;68.60;;;;;;4983053;28;20205;-75
2022/04/04 01:27:14;;;;;;;6.83;3.90;;;7.50;69.40;;;;;;4983366;28;20674;-75
2022/04/04 01:29:42;;;;;;;7.20;3.70;;;7.50;68.60;;;;;;4983321;28;20231;-75
2022/04/04 01:32:11;;;;;;;6.40;4.20;;;7.50;68.60;;;;;;4983437;28;20204;-76
2022/04/04 01:34:40;;;;;;;7.23;3.40;;;7.50;68.50;;;;;;4983090;28;20200;-76
2022/04/04 01:37:08;;;;;;;5.70;3.83;;;7.50;68.50;;;;;;4982372;28;20613;-76
2022/04/04 01:39:37;;;;;;;5.90;4.13;;;7.50;68.40;;;;;;4983376;28;20204;-76
2022/04/04 01:42:07;;;;;;;6.77;4.00;;;7.50;68.80;;;;;;4985809;28;20212;-76
2022/04/04 01:44:35;;;;;;;5.53;3.43;;;7.40;68.70;;;;;;4984694;28;20199;-76
2022/04/04 01:47:05;;;;;;;7.30;3.77;;;7.40;68.70;;;;;;4983839;28;20205;-76
2022/04/04 01:49:33;;;;;;;5.27;3.33;;;7.40;68.80;;;;;;4983908;28;20197;-76
2022/04/04 01:52:01;;;;;;;6.63;3.50;;;7.40;68.70;;;;;;4983032;28;20197;-76
2022/04/04 01:54:30;;;;;;;6.13;3.57;;;7.40;68.80;;;;;;4983584;28;20228;-76
2022/04/04 01:56:58;;;;;;;7.17;3.70;;;7.40;68.80;;;;;;4982554;28;20267;-74
2022/04/04 01:59:28;;;;;;;5.73;3.67;;;7.40;68.80;;;;;;4981985;28;20702;-76
2022/04/04 02:01:57;;;;;;;6.47;3.97;;;7.40;68.80;;;;;;4982309;28;20235;-75
2022/04/04 02:04:25;;;;;;;6.80;3.63;;;7.40;68.80;;;;;;4982143;28;20210;-75
2022/04/04 02:06:54;;;;;;;7.53;4.03;;;7.40;68.80;;;;;;4984297;28;20201;-74
2022/04/04 02:09:22;;;;;;;7.17;3.80;;;7.40;68.60;;;;;;4982413;28;20197;-74
2022/04/04 02:11:50;;;;;;;5.83;3.60;;;7.40;68.70;;;;;;4983195;28;20204;-74
2022/04/04 02:14:18;;;;;;;9.43;4.47;;;7.40;68.60;;;;;;4981278;28;20196;-75
2022/04/04 02:16:48;;;;;;;6.43;4.17;;;7.40;68.60;;;;;;4982538;28;20207;-74
2022/04/04 02:19:17;;;;;;;8.47;4.20;;;7.40;68.60;;;;;;4981743;28;20196;-74
2022/04/04 02:21:46;;;;;;;8.70;3.97;;;7.40;68.60;;;;;;4981799;28;20231;-74
2022/04/04 02:24:16;;;;;;;7.37;3.87;;;7.40;68.60;;;;;;4981418;28;20201;-75
2022/04/04 02:26:44;;;;;;;6.50;4.03;;;7.40;68.60;;;;;;4982931;28;21147;-73
2022/04/04 02:29:13;;;;;;;9.23;4.50;;;7.40;68.70;;;;;;4982702;28;20207;-74
2022/04/04 02:31:41;;;;;;;7.00;3.90;;;7.40;68.60;;;;;;4981058;28;20207;-74
2022/04/04 02:34:11;;;;;;;7.03;3.87;;;7.40;68.70;;;;;;4982595;28;20207;-75
2022/04/04 02:36:39;;;;;;;8.37;4.33;;;7.40;68.80;;;;;;4982702;28;20666;-74
2022/04/04 02:39:07;;;;;;;8.90;4.27;;;7.30;68.70;;;;;;4983167;28;20212;-74
2022/04/04 02:41:36;;;;;;;7.83;4.30;;;7.40;68.80;;;;;;4981717;28;20718;-74
2022/04/04 02:44:05;;;;;;;9.00;4.10;;;7.30;68.70;;;;;;4981856;28;20205;-75
2022/04/04 02:46:35;;;;;;;10.07;4.30;;;7.30;68.70;;;;;;4980870;28;20207;-75
2022/04/04 02:49:04;;;;;;;7.70;4.30;;;7.30;68.70;;;;;;4981893;28;20201;-75
2022/04/04 02:51:34;;;;;;;7.20;3.67;;;7.30;68.80;;;;;;4982264;28;20781;-75
2022/04/04 02:54:02;;;;;;;10.87;3.87;;;7.30;68.70;;;;;;4983044;28;20223;-75
2022/04/04 02:56:29;;;;;;;7.83;4.37;;;7.30;68.70;;;;;;4982311;28;20650;-75
2022/04/04 02:59:00;;;;;;;6.33;3.67;;;7.30;68.70;;;;;;4982291;28;20197;-76
2022/04/04 03:01:30;;;;;;;6.90;4.03;;;7.30;68.70;;;;;;4983573;28;20844;-76
2022/04/04 03:03:59;;;;;;;8.07;4.40;;;7.30;68.70;;;;;;4982043;28;20203;-76
2022/04/04 03:06:27;;;;;;;6.47;3.93;;;7.20;68.60;;;;;;4981929;28;20209;-76
2022/04/04 03:08:57;;;;;;;6.77;4.37;;;7.20;68.60;;;;;;4982196;28;20205;-75
2022/04/04 03:11:26;;;;;;;11.20;4.67;;;7.30;68.70;;;;;;4982217;28;20199;-75
2022/04/04 03:13:54;;;;;;;9.97;4.27;;;7.30;69.00;;;;;;4984388;28;20201;-76
2022/04/04 03:16:22;;;;;;;16.63;4.70;;;7.20;68.90;;;;;;4983448;28;20215;-75
2022/04/04 03:18:54;;;;;;;8.90;4.23;;;7.20;68.80;;;;;;4985601;28;20222;-76
2022/04/04 03:21:22;;;;;;;10.73;4.60;;;7.20;68.70;;;;;;4985461;28;20235;-77
2022/04/04 03:23:50;;;;;;;9.07;4.60;;;7.20;68.70;;;;;;4985639;28;20212;-76
2022/04/04 03:26:22;;;;;;;7.83;4.63;;;7.20;68.80;;;;;;4985342;28;20189;-77
2022/04/04 03:28:51;;;;;;;9.23;4.73;;;7.10;69.10;;;;;;4986618;28;20916;-76
2022/04/04 03:31:19;;;;;;;12.70;5.07;;;7.20;69.00;;;;;;4985442;28;20746;-77
2022/04/04 03:33:48;;;;;;;11.37;4.33;;;7.10;68.90;;;;;;4984978;28;20201;-76
2022/04/04 03:36:16;;;;;;;9.90;5.27;;;7.10;68.90;;;;;;4984381;28;20206;-75
2022/04/04 03:38:44;;;;;;;8.57;4.97;;;7.10;69.10;;;;;;4984508;28;20209;-75
2022/04/04 03:41:13;;;;;;;10.27;4.70;;;7.10;69.10;;;;;;4984721;28;20224;-75
2022/04/04 03:43:42;;;;;;;10.63;4.93;;;7.10;69.10;;;;;;4985149;28;20190;-75
2022/04/04 03:46:11;;;;;;;13.37;4.37;;;7.10;69.20;;;;;;4985475;28;20210;-75
2022/04/04 03:48:40;;;;;;;8.87;4.90;;;7.10;70.00;;;;;;4984132;28;20203;-75
2022/04/04 03:51:09;;;;;;;12.43;4.73;;;7.10;69.20;;;;;;4985244;28;20207;-75
2022/04/04 03:53:37;;;;;;;10.13;4.50;;;7.10;69.50;;;;;;4985541;28;20193;-75
2022/04/04 03:56:07;;;;;;;13.10;4.90;;;7.10;69.60;;;;;;4984790;28;20204;-75
2022/04/04 03:58:36;;;;;;;11.27;4.70;;;7.00;69.80;;;;;;4983614;28;20208;-75
2022/04/04 04:01:05;;;;;;;9.30;4.80;;;7.00;69.70;;;;;;4983707;28;20200;-76
2022/04/04 04:03:35;;;;;;;10.10;5.40;;;7.00;69.70;;;;;;4984082;28;20571;-75
2022/04/04 04:06:13;;;;;;;8.27;4.80;;;7.00;69.60;;;;;;4986172;28;20216;-74
2022/04/04 04:08:44;;;;;;;12.13;4.50;;;7.00;69.70;;;;;;4984523;28;20192;-74
2022/04/04 04:11:14;;;;;;;11.03;5.00;;;7.00;69.70;;;;;;4985031;28;20650;-74
2022/04/04 04:13:43;;;;;;;7.37;4.67;;;7.00;69.70;;;;;;4983782;28;20633;-74
2022/04/04 04:16:13;;;;;;;8.43;4.93;;;7.00;69.80;;;;;;4983390;28;20219;-74
2022/04/04 04:18:42;;;;;;;9.60;5.10;;;7.00;70.00;;;;;;4984451;28;20203;-74
2022/04/04 04:21:12;;;;;;;13.43;5.50;;;7.00;69.80;;;;;;4985155;28;20235;-76
2022/04/04 04:23:44;;;;;;;11.40;5.30;;;7.00;69.90;;;;;;4984657;28;20203;-74
2022/04/04 04:26:14;;;;;;;12.20;5.57;;;7.00;70.10;;;;;;4985445;28;21137;-74
2022/04/04 04:28:43;;;;;;;8.67;4.93;;;7.00;70.00;;;;;;4983795;28;20196;-74
2022/04/04 04:31:14;;;;;;;14.50;6.27;;;7.00;70.10;;;;;;4985998;28;20217;-75
2022/04/04 04:33:42;;;;;;;12.90;4.80;;;7.10;70.20;;;;;;4985207;28;20199;-75
2022/04/04 04:36:12;;;;;;;10.30;5.33;;;7.10;70.20;;;;;;4984231;28;20566;-76
2022/04/04 04:38:40;;;;;;;9.17;5.10;;;7.10;70.20;;;;;;4984941;28;21578;-76
2022/04/04 04:41:09;;;;;;;13.60;5.00;;;7.20;70.20;;;;;;4985682;28;21018;-76
2022/04/04 04:43:39;;;;;;;9.83;6.03;;;7.20;70.20;;;;;;4985488;28;20217;-76
2022/04/04 04:46:08;;;;;;;11.70;4.83;;;7.20;70.20;;;;;;4985271;28;20618;-74
2022/04/04 04:48:38;;;;;;;14.33;5.73;;;7.20;70.10;;;;;;4984694;28;20755;-74
2022/04/04 04:51:07;;;;;;;11.73;5.87;;;7.20;70.00;;;;;;4986433;28;20214;-74
2022/04/04 04:53:35;;;;;;;13.07;5.70;;;7.30;70.00;;;;;;4984640;28;20977;-75
2022/04/04 04:56:04;;;;;;;13.67;5.83;;;7.30;70.00;;;;;;4984485;28;20297;-74
2022/04/04 04:58:33;;;;;;;10.27;5.03;;;7.40;70.00;;;;;;4983974;28;21005;-75
2022/04/04 05:01:01;;;;;;;9.00;5.17;;;7.40;70.00;;;;;;4985531;28;20224;-74
2022/04/04 05:03:30;;;;;;;16.57;5.90;;;7.40;70.00;;;;;;4984479;28;20281;-73
2022/04/04 05:05:59;;;;;;;13.17;6.03;;;7.40;69.90;;;;;;4983865;28;20291;-74
2022/04/04 05:08:29;;;;;;;14.63;6.60;;;7.50;70.10;;;;;;4983521;28;20212;-75
2022/04/04 05:10:59;;;;;;;13.27;6.00;;;7.50;70.20;;;;;;4983739;28;20211;-74
2022/04/04 05:13:28;;;;;;;13.73;6.27;;;7.50;70.30;;;;;;4983451;28;20191;-74
2022/04/04 05:15:56;;;;;;;14.87;6.43;;;7.60;70.50;;;;;;4983775;28;20212;-73
2022/04/04 05:18:24;;;;;;;7.83;5.43;;;7.60;71.50;;;;;;4983173;28;20232;-75
2022/04/04 05:20:53;;;;;;;8.47;5.63;;;7.60;71.30;;;;;;4981308;28;20240;-74
2022/04/04 05:23:23;;;;;;;8.60;5.63;;;7.70;72.90;;;;;;4983775;28;20812;-75
2022/04/04 05:25:52;;;;;;;9.47;5.47;;;7.70;74.30;;;;;;4982851;28;20201;-75
2022/04/04 05:28:20;;;;;;;8.70;4.63;;;7.80;74.10;;;;;;4984669;28;20201;-74
2022/04/04 05:30:49;;;;;;;8.00;5.03;;;7.90;74.40;;;;;;4983957;28;20205;-75
2022/04/04 05:33:17;;;;;;;9.43;6.03;;;7.90;74.10;;;;;;4983743;28;20277;-74
2022/04/04 05:35:47;;;;;;;8.63;5.23;;;8.00;75.20;;;;;;4981443;28;20233;-77
2022/04/04 05:38:17;;;;;;;8.77;5.07;;;8.10;74.40;;;;;;4984111;28;20199;-75
2022/04/04 05:40:48;;;;;;;11.97;5.60;;;8.10;74.60;;;;;;4985053;28;20695;-75
2022/04/04 05:43:17;;;;;;;8.37;5.13;;;8.10;74.90;;;;;;4984404;28;20209;-73
2022/04/04 05:45:49;;;;;;;14.30;6.63;;;8.20;74.50;;;;;;4983630;28;20249;-75
2022/04/04 05:48:18;;;;;;;8.23;5.57;;;8.30;74.80;;;;;;4983411;28;20189;-75
2022/04/04 05:50:49;;;;;;;11.30;5.53;;;8.30;74.90;;;;;;4984239;28;20790;-75
2022/04/04 05:53:21;;;;;;;7.73;5.17;;;8.40;74.80;;;;;;4984069;28;20203;-74
2022/04/04 05:55:54;;;;;;;10.53;5.70;;;8.50;75.00;;;;;;4983125;28;20302;-74
2022/04/04 05:58:24;;;;;;;9.50;5.83;;;8.50;75.10;;;;;;4983081;28;20237;-74
2022/04/04 06:00:54;;;;;;;8.60;5.67;;;8.60;74.90;;;;;;4984096;28;20198;-75
2022/04/04 06:03:22;;;;;;;11.17;5.90;;;8.60;74.80;;;;;;4983486;28;20214;-76
2022/04/04 06:05:52;;;;;;;9.93;6.67;;;8.70;74.70;;;;;;4983941;28;20200;-75
2022/04/04 06:08:22;;;;;;;10.67;6.53;;;8.80;74.70;;;;;;4984161;28;20319;-74
2022/04/04 06:10:53;;;;;;;9.40;5.97;;;8.90;74.50;;;;;;4983672;28;20204;-75
2022/04/04 06:13:22;;;;;;;7.93;5.90;;;8.90;74.30;;;;;;4984085;28;20683;-75
2022/04/04 06:15:54;;;;;;;9.27;6.47;;;9.00;74.20;;;;;;4983999;28;20200;-74
2022/04/04 06:18:23;;;;;;;9.90;6.37;;;9.10;74.00;;;;;;4983665;28;20204;-74
2022/04/04 06:20:54;;;;;;;14.90;7.60;;;9.20;74.00;;;;;;4983139;28;20236;-75
2022/04/04 06:23:24;;;;;;;11.13;6.90;;;9.30;73.90;;;;;;4982597;28;20751;-74
2022/04/04 06:25:58;;;;;;;10.60;6.43;;;9.40;73.80;;;;;;4982259;28;20778;-75
2022/04/04 06:28:27;;;;;;;10.60;6.97;;;9.50;73.80;;;;;;4984249;28;20199;-75
2022/04/04 06:30:56;;;;;;;9.53;5.80;;;9.50;73.50;;;;;;4982381;28;20215;-74
2022/04/04 06:33:24;;;;;;;8.97;6.57;;;9.60;73.10;;;;;;4981988;28;20220;-76
2022/04/04 06:35:53;;;;;;;8.80;6.13;;;9.70;73.00;;;;;;4982325;28;20197;-74
2022/04/04 06:38:22;;;;;;;9.13;6.13;;;9.80;72.50;;;;;;4984595;28;20197;-74
2022/04/04 06:40:51;;;;;;;13.23;6.53;;;9.90;72.40;;;;;;4982619;28;20203;-74
2022/04/04 06:43:21;;;;;;;8.67;6.20;;;10.00;72.20;;;;;;4981950;28;20375;-74
2022/04/04 06:45:50;;;;;;;8.17;5.43;;;10.00;71.90;;;;;;4981826;28;20612;-74
2022/04/04 06:48:20;;;;;;;9.47;6.43;;;10.10;71.70;;;;;;4983983;28;20275;-74
2022/04/04 06:50:48;;;;;;;10.17;5.80;;;10.20;71.40;;;;;;4985728;28;21564;-74
2022/04/04 06:53:19;;;;;;;11.30;7.10;;;10.30;71.30;;;;;;4985944;28;20445;-74
2022/04/04 06:55:49;;;;;;;10.40;6.73;;;10.30;71.10;;;;;;4985343;28;20682;-77
2022/04/04 06:58:18;;;;;;;12.60;6.97;;;10.40;71.30;;;;;;4985645;28;20201;-74
2022/04/04 07:00:48;;;;;;;8.03;6.30;;;10.40;70.90;;;;;;4985782;28;20203;-73
2022/04/04 07:03:16;;;;;;;8.40;5.60;;;10.50;70.70;;;;;;4987087;28;20220;-75
2022/04/04 07:05:45;;;;;;;10.33;6.20;;;10.60;70.70;;;;;;4985220;28;20266;-75
2022/04/04 07:08:14;;;;;;;12.30;6.20;;;10.70;69.90;;;;;;4985702;28;20227;-74
2022/04/04 07:10:42;;;;;;;7.50;5.50;;;10.70;69.50;;;;;;4985006;28;20204;-75
2022/04/04 07:13:11;;;;;;;8.10;5.80;;;10.80;69.40;;;;;;4983894;28;20203;-76
2022/04/04 07:15:41;;;;;;;9.10;5.37;;;10.90;69.20;;;;;;4983939;28;20197;-74
2022/04/04 07:18:12;;;;;;;7.97;5.70;;;11.00;69.10;;;;;;4985600;28;20210;-75
2022/04/04 07:20:40;;;;;;;9.77;6.13;;;11.00;69.00;;;;;;4986857;28;20236;-72
2022/04/04 07:23:09;;;;;;;8.10;5.40;;;11.10;68.80;;;;;;4985012;28;20950;-75
2022/04/04 07:25:37;;;;;;;8.70;5.93;;;11.20;68.70;;;;;;4985274;28;20696;-75
2022/04/04 07:28:08;;;;;;;9.47;5.57;;;11.30;68.60;;;;;;4985311;28;20979;-75
2022/04/04 07:30:36;;;;;;;9.00;5.87;;;11.30;68.70;;;;;;4985083;28;20197;-74
2022/04/04 07:33:05;;;;;;;9.60;6.07;;;11.40;68.30;;;;;;4985064;28;20228;-75
2022/04/04 07:35:35;;;;;;;10.63;7.03;;;11.50;68.10;;;;;;4983965;28;20209;-75
2022/04/04 07:38:04;;;;;;;9.70;6.67;;;11.50;67.40;;;;;;4985008;28;20219;-75
2022/04/04 07:40:33;;;;;;;11.67;6.40;;;11.50;66.90;;;;;;4984964;28;20792;-75
2022/04/04 07:43:01;;;;;;;11.03;6.97;;;11.60;67.20;;;;;;4984291;28;20213;-74
2022/04/04 07:45:31;;;;;;;10.87;6.40;;;11.70;67.30;;;;;;4986417;28;20197;-74
2022/04/04 07:48:00;;;;;;;11.00;6.70;;;11.70;67.10;;;;;;4990755;28;20280;-76
2022/04/04 07:50:28;;;;;;;7.37;5.60;;;11.80;66.70;;;;;;4993352;28;20321;-75
2022/04/04 07:53:00;;;;;;;9.00;6.60;;;11.80;66.30;;;;;;4989077;28;20442;-77
2022/04/04 07:55:29;;;;;;;11.80;6.60;;;11.90;66.00;;;;;;4990635;28;20873;-74
2022/04/04 07:58:04;;;;;;;9.00;5.77;;;11.90;66.30;;;;;;4989312;28;20417;-74
2022/04/04 08:00:33;;;;;;;9.93;6.60;;;11.90;66.00;;;;;;4987051;28;20205;-75
2022/04/04 08:03:02;;;;;;;11.27;6.80;;;11.90;65.10;;;;;;4986970;28;20211;-75
2022/04/04 08:05:32;;;;;;;13.13;6.90;;;11.90;65.00;;;;;;4985621;28;20225;-74
2022/04/04 08:08:02;;;;;;;10.10;5.87;;;12.00;64.90;;;;;;4985770;28;20193;-75
2022/04/04 08:10:31;;;;;;;8.93;5.67;;;12.00;64.40;;;;;;4985586;28;20215;-73
2022/04/04 08:13:00;;;;;;;9.63;5.63;;;12.00;64.20;;;;;;4985925;28;20197;-74
2022/04/04 08:15:29;;;;;;;10.17;5.80;;;12.10;64.10;;;;;;4984026;28;20288;-74
2022/04/04 08:17:57;;;;;;;11.80;6.43;;;12.10;63.80;;;;;;4984167;28;20201;-76
2022/04/04 08:20:28;;;;;;;10.73;6.50;;;12.20;63.90;;;;;;4985453;28;20203;-74
2022/04/04 08:22:57;;;;;;;9.93;7.03;;;12.20;63.70;;;;;;4984589;28;20197;-73
2022/04/04 08:25:26;;;;;;;13.90;6.83;;;12.30;63.30;;;;;;4984112;28;20252;-75
2022/04/04 08:27:55;;;;;;;11.10;6.17;;;12.30;63.30;;;;;;4985318;28;20196;-74
2022/04/04 08:30:23;;;;;;;9.63;5.80;;;12.40;63.10;;;;;;4983462;28;20205;-75
2022/04/04 08:32:52;;;;;;;9.53;6.33;;;12.40;62.70;;;;;;4984896;28;20212;-73
2022/04/04 08:35:21;;;;;;;8.53;5.90;;;12.40;62.70;;;;;;4982421;28;20209;-75
2022/04/04 08:37:49;;;;;;;9.47;6.40;;;12.60;62.80;;;;;;4981892;28;20211;-75
2022/04/04 08:40:19;;;;;;;10.33;6.30;;;12.70;62.90;;;;;;4982421;28;20206;-76
2022/04/04 08:42:50;;;;;;;9.07;6.33;;;12.70;61.60;;;;;;4985085;28;20229;-74
2022/04/04 08:45:18;;;;;;;8.83;5.50;;;12.80;61.60;;;;;;4985389;28;20217;-75
2022/04/04 08:47:47;;;;;;;8.53;5.60;;;12.90;61.10;;;;;;4985337;28;20227;-74
2022/04/04 08:50:18;;;;;;;8.70;6.27;;;12.90;60.50;;;;;;4984429;28;20204;-76
2022/04/04 08:52:48;;;;;;;11.03;6.50;;;12.90;60.50;;;;;;4983921;28;20562;-78
2022/04/04 08:55:17;;;;;;;9.53;6.07;;;13.00;60.70;;;;;;4983710;28;20204;-75
2022/04/04 08:57:46;;;;;;;7.47;5.10;;;13.10;60.70;;;;;;4983559;28;20643;-75
2022/04/04 09:00:17;;;;;;;8.23;5.40;;;13.20;60.00;;;;;;4983371;28;20201;-75
2022/04/04 09:02:58;;;;;;;9.03;5.27;;;13.30;59.50;;;;;;4984247;28;20203;-75
2022/04/04 09:05:29;;;;;;;9.37;5.13;;;13.30;59.20;;;;;;4985730;28;20228;-73
2022/04/04 09:08:05;;;;;;;12.20;6.90;;;13.50;59.30;;;;;;4984779;28;20216;-75
2022/04/04 09:10:36;;;;;;;14.07;6.27;;;13.60;58.90;;;;;;4984264;28;20575;-75
2022/04/04 09:13:13;;;;;;;7.97;5.27;;;13.60;58.30;;;;;;4985048;28;20347;-76
2022/04/04 09:15:59;;;;;;;9.53;6.07;;;13.70;58.50;;;;;;4982696;28;21115;-74
2022/04/04 09:18:49;;;;;;;9.50;5.90;;;13.80;58.10;;;;;;4983308;28;20204;-74
2022/04/04 09:21:34;;;;;;;9.80;6.17;;;13.70;57.40;;;;;;4984053;28;20326;-75
2022/04/04 09:24:10;;;;;;;9.37;6.47;;;13.70;57.40;;;;;;4982330;28;20531;-74
2022/04/04 09:26:40;;;;;;;9.47;5.47;;;13.80;57.40;;;;;;4982315;28;20196;-75
2022/04/04 09:29:14;;;;;;;8.13;5.37;;;13.90;57.30;;;;;;4982561;28;20198;-74
2022/04/04 09:31:55;;;;;;;6.63;4.43;;;13.80;56.30;;;;;;4983074;28;20323;-76
2022/04/04 09:34:24;;;;;;;5.80;4.50;;;13.80;55.50;;;;;;4981775;28;20859;-75
2022/04/04 09:36:52;;;;;;;8.47;4.60;;;13.80;55.40;;;;;;4982469;28;20215;-74
2022/04/04 09:39:21;;;;;;;8.33;4.77;;;13.80;55.20;;;;;;4982783;28;20196;-74
2022/04/04 09:41:50;;;;;;;8.97;4.83;;;13.90;55.30;;;;;;4983026;28;20189;-74
2022/04/04 09:44:25;;;;;;;7.93;4.77;;;13.90;55.80;;;;;;4981362;28;20257;-76
2022/04/04 09:46:56;;;;;;;6.20;3.90;;;14.00;55.60;;;;;;4983489;28;20204;-76
2022/04/04 09:49:24;;;;;;;6.93;4.00;;;14.10;54.00;;;;;;4982316;28;20201;-75
2022/04/04 09:51:54;;;;;;;11.63;4.80;;;14.10;53.10;;;;;;4983820;28;20204;-74
2022/04/04 09:54:24;;;;;;;6.17;3.73;;;14.00;52.30;;;;;;4981415;28;20216;-75
2022/04/04 09:56:57;;;;;;;8.03;3.50;;;14.10;52.30;;;;;;4981967;28;20216;-74
2022/04/04 09:59:32;;;;;;;9.00;3.90;;;14.10;51.80;;;;;;4982106;28;20659;-74
2022/04/04 10:02:03;;;;;;;5.57;3.53;;;14.10;51.80;;;;;;4982080;28;20239;-73
2022/04/04 10:04:33;;;;;;;6.13;2.73;;;14.20;51.80;;;;;;4981772;28;20923;-77
2022/04/04 10:07:08;;;;;;;3.90;2.37;;;14.30;50.50;;;;;;4982307;28;20908;-75
2022/04/04 10:09:37;;;;;;;3.97;2.50;;;14.20;49.00;;;;;;4982844;28;20226;-76
2022/04/04 10:12:07;;;;;;;5.07;2.43;;;14.20;47.30;;;;;;4982482;28;20769;-76
2022/04/04 10:14:37;;;;;;;6.03;2.70;;;14.30;48.50;;;;;;4982357;28;20192;-75
2022/04/04 10:17:07;;;;;;;10.52;5.00;;;14.30;48.90;;;;;;4982698;28;20442;-74
2022/04/04 10:19:36;;;;;;;4.67;2.93;;;14.40;48.60;;;;;;4982550;28;20193;-74
2022/04/04 10:22:05;;;;;;;5.60;3.37;;;14.40;48.40;;;;;;4980416;28;20243;-72
2022/04/04 10:24:36;;;;;;;4.13;2.70;;;14.40;48.00;;;;;;4981742;28;20204;-73
2022/04/04 10:27:12;;;;;;;8.93;4.53;;;14.60;48.50;;;;;;4982273;28;20201;-75
2022/04/04 10:29:42;;;;;;;6.00;2.97;;;14.60;48.60;;;;;;4982605;28;20204;-73
2022/04/04 10:32:23;;;;;;;4.10;2.70;;;14.70;48.30;;;;;;4981951;28;20205;-74
2022/04/04 10:34:52;;;;;;;4.20;2.83;;;14.70;48.70;;;;;;4982407;28;20257;-74
2022/04/04 10:37:21;;;;;;;7.07;3.30;;;14.90;48.90;;;;;;4981887;28;20212;-75
2022/04/04 10:39:50;;;;;;;6.03;3.43;;;15.00;49.10;;;;;;4983087;28;20318;-74
2022/04/04 10:42:27;;;;;;;6.00;2.60;;;15.10;49.20;;;;;;4982755;28;20201;-75
2022/04/04 10:45:10;;;;;;;5.13;2.90;;;15.00;47.50;;;;;;4981412;28;20239;-75
2022/04/04 10:47:42;;;;;;;4.87;2.90;;;15.00;48.10;;;;;;4981771;28;20232;-74
2022/04/04 10:50:25;;;;;;;6.00;3.17;;;15.10;48.40;;;;;;4982209;28;20631;-75
2022/04/04 10:53:00;;;;;;;6.07;3.17;;;15.00;47.10;;;;;;4981400;28;20193;-76
2022/04/04 10:55:44;;;;;;;4.63;2.80;;;15.00;48.50;;;;;;4981513;28;20199;-74
2022/04/04 10:58:20;;;;;;;5.10;2.80;;;15.00;47.70;;;;;;4982136;28;20719;-75
2022/04/04 11:00:57;;;;;;;5.80;1.80;;;15.10;48.00;;;;;;4983069;28;20189;-76
2022/04/04 11:03:31;;;;;;;5.03;1.70;;;15.00;45.30;;;;;;4981577;28;20691;-74
2022/04/04 11:09:12;;;;;;;5.13;2.50;;;15.20;45.60;;;;;;4983191;28;20197;-76
2022/04/04 11:11:43;;;;;;;4.37;2.37;;;15.20;44.20;;;;;;4983878;28;20288;-75
2022/04/04 11:14:12;;;;;;;3.77;1.70;;;15.30;45.10;;;;;;4984226;28;20206;-75
2022/04/04 11:17:17;;;;;;;3.57;2.00;;;15.30;44.80;;;;;;4981783;28;20229;-75
2022/04/04 11:19:49;;;;;;;7.17;2.70;;;15.30;43.40;;;;;;4981974;28;20197;-74
2022/04/04 11:22:19;;;;;;;4.70;2.30;;;15.30;44.80;;;;;;4982402;28;20220;-75
2022/04/04 11:24:52;;;;;;;5.30;1.80;;;15.20;43.80;;;;;;4980836;28;20200;-76
2022/04/04 11:27:21;;;;;;;5.90;2.83;;;15.20;43.60;;;;;;4981344;28;20474;-75
2022/04/04 11:29:50;;;;;;;6.57;2.33;;;15.10;43.20;;;;;;4981643;28;20197;-75
2022/04/04 11:32:25;;;;;;;3.33;2.40;;;15.10;43.50;;;;;;4980287;28;20205;-74
2022/04/04 11:34:57;;;;;;;8.47;2.37;;;15.00;43.60;;;;;;4984462;28;20197;-74
2022/04/04 11:37:27;;;;;;;2.80;1.90;;;15.10;43.90;;;;;;4984597;28;20207;-75
2022/04/04 11:40:03;;;;;;;5.67;2.20;;;15.00;42.80;;;;;;4985140;28;20700;-74
2022/04/04 11:42:32;;;;;;;3.60;2.00;;;15.00;42.60;;;;;;4985909;28;20652;-74
2022/04/04 11:45:03;;;;;;;2.50;1.60;;;14.90;42.10;;;;;;4987323;28;20209;-74
2022/04/04 11:47:32;;;;;;;2.73;2.00;;;14.90;42.20;;;;;;4984486;28;20225;-76
2022/04/04 11:50:03;;;;;;;4.63;2.10;;;14.80;42.10;;;;;;4984955;28;20215;-76
2022/04/04 11:52:44;;;;;;;6.00;2.20;;;14.80;41.70;;;;;;4984749;28;20570;-75
2022/04/04 11:55:16;;;;;;;4.87;2.33;;;14.80;42.30;;;;;;4984639;28;20193;-75
2022/04/04 11:57:51;;;;;;;6.03;2.43;;;14.70;41.90;;;;;;4985327;28;20227;-76
2022/04/04 12:00:25;;;;;;;3.87;2.40;;;14.80;42.80;;;;;;4987003;28;20208;-74
2022/04/04 12:02:54;;;;;;;3.40;1.87;;;14.80;42.90;;;;;;4984510;28;20207;-75
2022/04/04 12:05:26;;;;;;;4.03;2.23;;;14.70;42.90;;;;;;4985166;28;20200;-75
2022/04/04 12:07:55;;;;;;;3.37;2.27;;;14.80;43.10;;;;;;4988496;28;20651;-76
2022/04/04 12:10:31;;;;;;;5.53;2.72;;;14.70;42.20;;;;;;4986156;28;21225;-75
2022/04/04 12:13:04;;;;;;;4.00;2.50;;;14.70;42.90;;;;;;4986895;28;20203;-76
2022/04/04 12:15:34;;;;;;;8.23;2.60;;;14.60;43.20;;;;;;4983688;28;20886;-74
2022/04/04 12:18:04;;;;;;;5.63;2.40;;;14.60;43.70;;;;;;4984328;28;20207;-75
2022/04/04 12:20:40;;;;;;;5.90;2.87;;;14.60;43.50;;;;;;4985815;28;20236;-74
2022/04/04 12:25:57;;;;;;;8.47;2.97;;;14.50;43.40;;;;;;4983467;28;20220;-75
2022/04/04 12:28:26;;;;;;;5.37;2.80;;;14.50;43.40;;;;;;4983332;28;20196;-74
2022/04/04 12:30:55;;;;;;;5.27;2.80;;;14.50;43.40;;;;;;4983882;28;20343;-73
2022/04/04 12:33:32;;;;;;;4.63;2.80;;;14.50;43.70;;;;;;4984345;28;20213;-75
2022/04/04 12:36:02;;;;;;;6.27;3.47;;;14.50;44.40;;;;;;4982213;28;20655;-71
2022/04/04 12:38:32;;;;;;;6.70;3.37;;;14.40;45.00;;;;;;4984084;28;20231;-76
2022/04/04 12:41:12;;;;;;;9.33;4.13;;;14.40;45.50;;;;;;4986393;28;20201;-75
2022/04/04 12:43:43;;;;;;;17.57;3.40;;;14.40;46.00;;;;;;4983674;28;20655;-73
2022/04/04 12:46:27;;;;;;;8.23;3.73;;;14.30;45.70;;;;;;4983497;28;20213;-73
2022/04/04 12:49:12;;;;;;;6.30;3.83;;;14.30;45.60;;;;;;4984759;28;20946;-73
2022/04/04 12:51:52;;;;;;;10.30;4.10;;;14.40;45.90;;;;;;4985830;28;20208;-75
2022/04/04 12:54:27;;;;;;;9.47;5.10;;;14.40;46.10;;;;;;4983303;28;20202;-76
2022/04/04 12:56:55;;;;;;;10.63;4.70;;;14.40;46.10;;;;;;4984799;28;20188;-73
2022/04/04 12:59:25;;;;;;;5.97;4.10;;;14.50;46.50;;;;;;4984489;28;20727;-74
2022/04/04 13:02:05;;;;;;;10.10;4.17;;;14.50;45.90;;;;;;4982502;28;20200;-75
2022/04/04 13:04:35;;;;;;;8.13;4.37;;;14.60;45.80;;;;;;4983015;28;20196;-73
2022/04/04 13:07:19;;;;;;;8.43;4.20;;;14.70;46.00;;;;;;4984083;28;20216;-74
2022/04/04 13:09:53;;;;;;;6.37;3.87;;;14.70;45.10;;;;;;4985386;28;20219;-73
2022/04/04 13:12:28;;;;;;;7.67;4.63;;;14.90;45.00;;;;;;4981096;28;20355;-73